createdAt,value
2019-03-13T00:01:42.354Z,2.45
2019-03-13T00:04:11.267Z,2.51
2019-03-13T00:06:39.210Z,2.59
2019-03-13T00:09:07.715Z,2.45
2019-03-13T00:11:35.891Z,2.34
2019-03-13T00:14:04.041Z,2.49
2019-03-13T00:16:32.003Z,2.32
2019-03-13T00:18:59.971Z,2.44
2019-03-13T00:21:27.946Z,2.33
2019-03-13T00:23:55.930Z,2.28
2019-03-13T00:26:23.907Z,2.15
2019-03-13T00:28:51.459Z,2.11
2019-03-13T00:31:19.221Z,2.09
2019-03-13T00:33:47.191Z,2.05
2019-03-13T00:36:15.160Z,1.95
2019-03-13T00:38:43.026Z,1.94
2019-03-13T00:41:10.787Z,1.87
2019-03-13T00:43:38.550Z,1.91
2019-03-13T00:46:06.517Z,1.83
2019-03-13T00:48:34.182Z,1.88
2019-03-13T00:51:02.050Z,1.88
2019-03-13T00:53:30.737Z,1.89
2019-03-13T00:55:58.602Z,1.75
2019-03-13T00:58:26.668Z,1.77
2019-03-13T01:00:57.797Z,1.84
2019-03-13T01:03:33.565Z,1.77
2019-03-13T01:06:09.522Z,1.72
2019-03-13T01:08:37.488Z,1.78
2019-03-13T01:11:05.462Z,1.73
2019-03-13T01:13:33.455Z,1.71
2019-03-13T01:16:01.509Z,1.58
2019-03-13T01:18:29.258Z,1.87
2019-03-13T01:20:57.106Z,2.15
2019-03-13T01:23:25.303Z,2.36
2019-03-13T01:25:53.065Z,2.21
2019-03-13T01:28:20.832Z,2.26
2019-03-13T01:30:50.431Z,2.22
2019-03-13T01:33:20.451Z,2.06
2019-03-13T01:35:59.072Z,1.77
2019-03-13T01:38:26.835Z,1.93
2019-03-13T01:40:54.619Z,2.25
2019-03-13T01:43:22.361Z,2.35
2019-03-13T01:45:50.224Z,2.41
2019-03-13T01:48:17.995Z,2.44
2019-03-13T01:50:45.755Z,2.48
2019-03-13T01:53:14.133Z,2.53
2019-03-13T01:55:41.892Z,2.46
2019-03-13T01:58:09.968Z,2.49
2019-03-13T02:00:38.243Z,2.39
2019-03-13T02:03:06.731Z,2.32
2019-03-13T02:05:34.593Z,2.36
2019-03-13T02:08:02.342Z,1.89
2019-03-13T02:10:30.140Z,1.99
2019-03-13T02:12:57.984Z,1.84
2019-03-13T02:15:26.055Z,1.75
2019-03-13T02:17:53.922Z,2.04
2019-03-13T02:20:21.683Z,2.00
2019-03-13T02:22:49.450Z,2.01
2019-03-13T02:25:17.312Z,1.82
2019-03-13T02:27:45.074Z,1.90
2019-03-13T02:30:15.508Z,1.49
2019-03-13T02:32:43.168Z,1.34
2019-03-13T02:35:11.036Z,1.36
2019-03-13T02:37:38.895Z,1.16
2019-03-13T02:40:10.039Z,1.11
2019-03-13T02:42:37.806Z,1.25
2019-03-13T02:45:10.066Z,1.23
2019-03-13T02:47:37.425Z,1.15
2019-03-13T02:50:11.334Z,1.14
2019-03-13T02:52:40.133Z,1.24
2019-03-13T02:55:09.333Z,1.38
2019-03-13T02:57:36.671Z,1.40
2019-03-13T03:00:16.720Z,1.20
2019-03-13T03:02:46.536Z,1.52
2019-03-13T03:05:14.502Z,1.58
2019-03-13T03:07:42.265Z,1.61
2019-03-13T03:10:11.371Z,1.80
2019-03-13T03:12:39.020Z,1.73
2019-03-13T03:15:10.578Z,1.71
2019-03-13T03:17:37.932Z,1.57
2019-03-13T03:20:08.669Z,1.63
2019-03-13T03:22:36.020Z,1.62
2019-03-13T03:25:07.158Z,1.79
2019-03-13T03:27:34.724Z,1.72
2019-03-13T03:30:05.088Z,1.57
2019-03-13T03:32:33.517Z,1.65
2019-03-13T03:35:01.609Z,1.18
2019-03-13T03:37:30.577Z,1.53
2019-03-13T03:40:01.105Z,1.35
2019-03-13T03:42:28.997Z,1.56
2019-03-13T03:44:56.736Z,1.60
2019-03-13T03:47:24.499Z,1.62
2019-03-13T03:49:53.087Z,1.47
2019-03-13T03:52:20.948Z,1.40
2019-03-13T03:54:49.533Z,1.23
2019-03-13T03:57:17.197Z,1.02
2019-03-13T03:59:45.062Z,1.12
2019-03-13T04:02:13.334Z,1.28
2019-03-13T04:04:41.304Z,1.28
2019-03-13T04:07:09.377Z,1.21
2019-03-13T04:09:37.438Z,0.89
2019-03-13T04:12:07.253Z,0.98
2019-03-13T04:14:35.325Z,0.96
2019-03-13T04:17:03.296Z,0.73
2019-03-13T04:19:31.270Z,0.81
2019-03-13T04:21:59.243Z,1.03
2019-03-13T04:24:27.305Z,1.17
2019-03-13T04:26:55.170Z,1.21
2019-03-13T04:29:23.135Z,1.46
2019-03-13T04:31:53.255Z,1.61
2019-03-13T04:34:21.427Z,1.34
2019-03-13T04:36:49.606Z,1.47
2019-03-13T04:39:17.677Z,1.32
2019-03-13T04:41:45.642Z,1.36
2019-03-13T04:44:13.510Z,1.53
2019-03-13T04:46:41.474Z,1.75
2019-03-13T04:49:09.445Z,1.74
2019-03-13T04:51:37.514Z,1.91
2019-03-13T04:54:05.896Z,1.69
2019-03-13T04:56:33.557Z,1.85
2019-03-13T04:59:01.422Z,1.66
2019-03-13T05:01:29.800Z,1.70
2019-03-13T05:03:57.878Z,1.55
2019-03-13T05:06:26.862Z,1.55
2019-03-13T05:08:57.152Z,1.59
2019-03-13T05:11:24.643Z,1.53
2019-03-13T05:13:52.584Z,1.42
2019-03-13T05:16:20.683Z,1.58
2019-03-13T05:18:48.652Z,1.38
2019-03-13T05:21:16.632Z,1.35
2019-03-13T05:23:44.689Z,1.35
2019-03-13T05:26:12.656Z,1.13
2019-03-13T05:28:40.625Z,1.34
2019-03-13T05:31:09.103Z,1.48
2019-03-13T05:33:37.079Z,1.63
2019-03-13T05:36:05.251Z,1.53
2019-03-13T05:38:33.322Z,1.48
2019-03-13T05:41:01.307Z,1.77
2019-03-13T05:43:29.263Z,1.85
2019-03-13T05:45:57.426Z,2.05
2019-03-13T05:48:25.399Z,1.95
2019-03-13T05:50:53.470Z,2.18
2019-03-13T05:53:21.647Z,2.08
2019-03-13T05:55:49.411Z,2.17
2019-03-13T05:58:17.374Z,2.24
2019-03-13T06:00:46.776Z,1.99
2019-03-13T06:03:14.679Z,2.24
2019-03-13T06:05:42.956Z,2.31
2019-03-13T06:08:10.889Z,2.23
2019-03-13T06:10:38.660Z,1.97
2019-03-13T06:13:06.728Z,1.73
2019-03-13T06:15:34.508Z,1.97
2019-03-13T06:18:02.456Z,1.90
2019-03-13T06:20:30.423Z,2.07
2019-03-13T06:22:58.393Z,2.01
2019-03-13T06:25:26.367Z,1.20
2019-03-13T06:27:54.329Z,0.72
2019-03-13T06:30:22.225Z,0.70
2019-03-13T06:32:50.375Z,0.63
2019-03-13T06:35:18.341Z,0.71
2019-03-13T06:37:46.411Z,1.01
2019-03-13T06:40:19.696Z,1.02
2019-03-13T06:42:47.261Z,0.88
2019-03-13T06:45:15.436Z,0.74
2019-03-13T06:47:43.062Z,0.73
2019-03-13T06:50:18.665Z,1.39
2019-03-13T06:52:46.508Z,1.59
2019-03-13T06:55:14.373Z,2.28
2019-03-13T06:57:42.341Z,2.05
2019-03-13T07:00:30.379Z,1.39
2019-03-13T07:03:06.746Z,1.58
2019-03-13T07:05:36.864Z,2.10
2019-03-13T07:08:06.682Z,2.23
2019-03-13T07:10:42.713Z,1.61
2019-03-13T07:13:31.288Z,1.31
2019-03-13T07:16:00.994Z,1.01
2019-03-13T07:18:30.811Z,1.21
2019-03-13T07:21:00.520Z,1.57
2019-03-13T07:23:30.325Z,1.27
2019-03-13T07:26:09.057Z,1.47
2019-03-13T07:28:52.490Z,1.67
2019-03-13T07:31:25.358Z,1.79
2019-03-13T07:33:55.379Z,2.28
2019-03-13T07:36:25.194Z,2.13
2019-03-13T07:38:54.895Z,2.59
2019-03-13T07:41:30.630Z,2.74
2019-03-13T07:44:17.359Z,2.95
2019-03-13T07:46:47.178Z,2.99
2019-03-13T07:49:33.880Z,3.07
2019-03-13T07:52:20.180Z,3.05
2019-03-13T07:54:59.715Z,2.88
2019-03-13T07:57:33.008Z,2.22
2019-03-13T08:00:02.804Z,2.74
2019-03-13T08:02:36.222Z,2.66
2019-03-13T08:05:15.963Z,2.94
2019-03-13T08:07:59.088Z,2.37
2019-03-13T08:10:37.805Z,2.06
2019-03-13T08:13:14.089Z,2.32
2019-03-13T08:15:59.264Z,2.78
2019-03-13T08:18:35.103Z,2.86
2019-03-13T08:21:07.670Z,2.51
2019-03-13T08:23:37.488Z,2.59
2019-03-13T08:26:10.268Z,2.74
2019-03-13T08:28:41.001Z,2.62
2019-03-13T08:31:19.519Z,2.74
2019-03-13T08:33:49.632Z,2.60
2019-03-13T08:36:19.644Z,2.83
2019-03-13T08:38:58.780Z,3.08
2019-03-13T08:41:34.429Z,2.69
2019-03-13T08:44:04.342Z,3.31
2019-03-13T08:46:34.255Z,3.50
2019-03-13T08:49:13.401Z,3.66
2019-03-13T08:51:43.299Z,3.87
2019-03-13T08:54:22.737Z,3.45
2019-03-13T08:56:58.695Z,3.79
2019-03-13T08:59:31.573Z,3.74
2019-03-13T09:02:04.461Z,3.72
2019-03-13T09:04:42.117Z,3.70
2019-03-13T09:07:11.662Z,3.52
2019-03-13T09:09:41.675Z,3.91
2019-03-13T09:12:23.470Z,3.95
2019-03-13T09:15:05.365Z,4.50
2019-03-13T09:17:37.579Z,3.89
2019-03-13T09:20:09.538Z,3.88
2019-03-13T09:22:44.939Z,3.65
2019-03-13T09:25:31.642Z,4.69
2019-03-13T09:28:10.470Z,4.91
2019-03-13T09:30:40.078Z,4.33
2019-03-13T09:33:18.489Z,4.30
2019-03-13T09:36:03.962Z,4.30
2019-03-13T09:38:33.595Z,5.21
2019-03-13T09:41:09.330Z,4.21
2019-03-13T09:43:41.797Z,4.66
2019-03-13T09:46:14.579Z,5.09
2019-03-13T09:48:46.847Z,5.35
2019-03-13T09:51:16.353Z,4.36
2019-03-13T09:53:52.106Z,4.54
2019-03-13T09:56:24.884Z,4.93
2019-03-13T09:58:54.695Z,5.33
2019-03-13T10:01:24.979Z,5.46
2019-03-13T10:03:57.391Z,5.47
2019-03-13T10:06:35.911Z,5.44
2019-03-13T10:09:17.191Z,4.54
2019-03-13T10:12:03.392Z,3.83
2019-03-13T10:14:35.758Z,3.81
2019-03-13T10:17:11.013Z,3.88
2019-03-13T10:19:43.288Z,4.57
2019-03-13T10:22:15.338Z,5.21
2019-03-13T10:24:45.142Z,5.15
2019-03-13T10:27:23.963Z,4.31
2019-03-13T10:30:11.901Z,4.66
2019-03-13T10:32:44.683Z,5.63
2019-03-13T10:35:17.682Z,5.33
2019-03-13T10:37:48.198Z,5.18
2019-03-13T10:40:27.236Z,5.76
2019-03-13T10:42:57.050Z,5.85
2019-03-13T10:45:32.991Z,6.07
2019-03-13T10:48:14.479Z,6.45
2019-03-13T10:50:44.393Z,6.20
2019-03-13T10:53:14.517Z,5.97
2019-03-13T10:55:56.923Z,6.12
2019-03-13T10:58:33.387Z,4.53
2019-03-13T11:01:13.850Z,5.38
2019-03-13T11:03:43.866Z,6.12
2019-03-13T11:06:16.750Z,5.60
2019-03-13T11:08:51.984Z,5.53
2019-03-13T11:11:24.362Z,5.51
2019-03-13T11:13:53.964Z,5.94
2019-03-13T11:16:23.557Z,5.11
2019-03-13T11:18:53.283Z,6.03
2019-03-13T11:21:26.170Z,5.60
2019-03-13T11:24:02.126Z,5.83
2019-03-13T11:26:41.151Z,6.69
2019-03-13T11:29:10.867Z,6.50
2019-03-13T11:31:43.344Z,5.93
2019-03-13T11:34:20.840Z,6.36
2019-03-13T11:36:56.369Z,6.62
2019-03-13T11:39:32.026Z,6.36
2019-03-13T11:42:04.909Z,6.58
2019-03-13T11:44:40.353Z,6.40
2019-03-13T11:47:41.409Z,6.53
2019-03-13T11:50:00.530Z,6.08
2019-03-13T11:52:35.072Z,6.36
2019-03-13T11:55:20.760Z,6.48
2019-03-13T11:57:56.813Z,5.07
2019-03-13T12:00:35.905Z,6.09
2019-03-13T12:03:09.138Z,6.01
2019-03-13T12:05:38.843Z,5.90
2019-03-13T12:08:08.758Z,5.56
2019-03-13T12:10:50.653Z,5.81
2019-03-13T12:13:29.370Z,5.89
2019-03-13T12:16:01.954Z,5.84
2019-03-13T12:18:34.863Z,5.47
2019-03-13T12:21:13.658Z,5.54
2019-03-13T12:23:46.193Z,5.44
2019-03-13T12:26:31.214Z,4.41
2019-03-13T12:29:00.808Z,4.99
2019-03-13T12:31:30.417Z,5.51
2019-03-13T12:34:00.224Z,5.67
2019-03-13T12:36:48.061Z,5.37
2019-03-13T12:39:23.502Z,5.46
2019-03-13T12:41:56.317Z,5.59
2019-03-13T12:44:42.685Z,5.47
2019-03-13T12:47:18.135Z,5.44
2019-03-13T12:49:50.604Z,5.51
2019-03-13T12:52:29.427Z,5.46
2019-03-13T12:55:08.276Z,5.59
2019-03-13T12:57:50.044Z,5.87
2019-03-13T13:00:20.062Z,5.83
2019-03-13T13:03:07.072Z,6.40
2019-03-13T13:05:36.889Z,6.25
2019-03-13T13:08:18.674Z,6.16
2019-03-13T13:11:06.616Z,5.84
2019-03-13T13:13:53.330Z,5.79
2019-03-13T13:16:31.898Z,5.71
2019-03-13T13:18:59.703Z,5.58
2019-03-13T13:21:27.667Z,5.81
2019-03-13T13:23:55.540Z,4.81
2019-03-13T13:26:23.306Z,4.45
2019-03-13T13:28:53.935Z,4.43
2019-03-13T13:31:21.798Z,4.59
2019-03-13T13:33:49.462Z,4.66
2019-03-13T13:36:17.428Z,4.57
2019-03-13T13:38:45.399Z,4.62
2019-03-13T13:41:13.160Z,4.29
2019-03-13T13:43:41.038Z,4.35
2019-03-13T13:46:15.345Z,4.61
2019-03-13T13:48:45.978Z,4.48
2019-03-13T13:51:13.704Z,4.78
2019-03-13T13:53:42.116Z,4.61
2019-03-13T13:56:09.982Z,4.31
2019-03-13T13:58:37.749Z,4.45
2019-03-13T14:01:05.923Z,4.53
2019-03-13T14:03:34.198Z,4.43
2019-03-13T14:06:02.478Z,4.64
2019-03-13T14:08:30.550Z,4.76
2019-03-13T14:10:58.534Z,4.91
2019-03-13T14:13:26.390Z,4.85
2019-03-13T14:15:54.343Z,4.59
2019-03-13T14:18:22.110Z,4.28
2019-03-13T14:20:50.093Z,4.47
2019-03-13T14:23:18.072Z,4.81
2019-03-13T14:25:46.368Z,5.31
2019-03-13T14:28:14.406Z,5.30
2019-03-13T14:30:42.359Z,5.36
2019-03-13T14:33:10.433Z,5.38
2019-03-13T14:35:38.399Z,5.32
2019-03-13T14:38:06.386Z,5.41
2019-03-13T14:40:34.132Z,5.41
2019-03-13T14:43:02.100Z,5.17
2019-03-13T14:45:29.866Z,4.99
2019-03-13T14:47:57.631Z,5.03
2019-03-13T14:50:25.699Z,5.05
2019-03-13T14:52:53.978Z,5.01
2019-03-13T14:55:21.943Z,5.13
2019-03-13T14:57:49.810Z,5.12
2019-03-13T15:00:19.243Z,5.01
2019-03-13T15:02:49.134Z,4.83
2019-03-13T15:05:17.198Z,4.77
2019-03-13T15:07:45.282Z,4.78
2019-03-13T15:10:15.928Z,4.70
2019-03-13T15:12:43.662Z,4.67
2019-03-13T15:15:14.676Z,4.66
2019-03-13T15:17:42.180Z,4.43
2019-03-13T15:20:15.672Z,4.61
2019-03-13T15:22:44.136Z,4.42
2019-03-13T15:25:13.029Z,4.20
2019-03-13T15:27:41.221Z,4.17
2019-03-13T15:30:21.152Z,4.17
2019-03-13T15:32:49.463Z,4.40
2019-03-13T15:35:17.617Z,4.35
2019-03-13T15:37:45.881Z,4.41
2019-03-13T15:40:15.182Z,4.49
2019-03-13T15:42:43.353Z,4.40
2019-03-13T15:45:23.712Z,4.29
2019-03-13T15:47:51.855Z,4.17
2019-03-13T15:50:21.608Z,4.09
2019-03-13T15:52:50.483Z,3.89
2019-03-13T15:55:18.959Z,3.86
2019-03-13T15:57:46.977Z,3.77
2019-03-13T16:00:21.044Z,3.81
2019-03-13T16:02:49.861Z,3.74
2019-03-13T16:05:17.798Z,3.74
2019-03-13T16:07:45.767Z,3.54
2019-03-13T16:10:14.860Z,3.52
2019-03-13T16:12:42.643Z,3.52
2019-03-13T16:15:16.853Z,3.46
2019-03-13T16:17:44.401Z,3.42
2019-03-13T16:20:14.170Z,3.49
2019-03-13T16:22:44.132Z,3.35
2019-03-13T16:25:12.301Z,3.28
2019-03-13T16:27:40.166Z,3.32
2019-03-13T16:30:18.275Z,3.34
2019-03-13T16:32:46.240Z,3.25
2019-03-13T16:35:14.525Z,3.14
2019-03-13T16:37:42.818Z,3.31
2019-03-13T16:40:13.115Z,3.16
2019-03-13T16:42:40.738Z,3.25
2019-03-13T16:45:11.444Z,3.23
2019-03-13T16:47:39.270Z,3.21
2019-03-13T16:50:10.531Z,3.38
2019-03-13T16:52:38.177Z,3.45
2019-03-13T16:55:09.833Z,3.30
2019-03-13T16:57:37.746Z,3.16
2019-03-13T17:00:15.199Z,3.15
2019-03-13T17:02:43.699Z,3.19
2019-03-13T17:05:13.828Z,3.18
2019-03-13T17:07:41.582Z,3.10
2019-03-13T17:10:11.680Z,3.01
2019-03-13T17:12:39.332Z,3.03
2019-03-13T17:15:13.566Z,2.94
2019-03-13T17:17:41.215Z,2.88
2019-03-13T17:20:26.255Z,2.71
2019-03-13T17:22:54.561Z,2.64
2019-03-13T17:25:22.838Z,2.62
2019-03-13T17:27:50.912Z,2.61
2019-03-13T17:30:28.859Z,2.55
2019-03-13T17:32:56.567Z,2.60
2019-03-13T17:35:24.741Z,2.45
2019-03-13T17:37:52.505Z,2.58
2019-03-13T17:40:22.524Z,2.45
2019-03-13T17:42:50.208Z,2.73
2019-03-13T17:45:19.995Z,2.65
2019-03-13T17:47:47.783Z,2.74
2019-03-13T17:50:17.468Z,2.77
2019-03-13T17:52:45.643Z,2.69
2019-03-13T17:55:15.556Z,2.56
2019-03-13T17:57:43.227Z,2.75
2019-03-13T18:00:16.512Z,2.73
2019-03-13T18:02:45.300Z,2.58
2019-03-13T18:05:14.351Z,2.43
2019-03-13T18:07:42.259Z,2.44
2019-03-13T18:10:18.743Z,2.53
2019-03-13T18:12:46.794Z,2.45
2019-03-13T18:15:16.091Z,2.40
2019-03-13T18:17:44.169Z,2.32
2019-03-13T18:20:22.685Z,2.22
2019-03-13T18:22:50.652Z,2.32
2019-03-13T18:25:18.882Z,2.25
2019-03-13T18:27:47.508Z,2.09
2019-03-13T18:30:17.480Z,1.97
2019-03-13T18:32:44.989Z,1.88
2019-03-13T18:35:14.077Z,1.93
2019-03-13T18:37:41.945Z,1.79
2019-03-13T18:40:14.943Z,1.77
2019-03-13T18:42:42.804Z,1.66
2019-03-13T18:45:16.198Z,1.63
2019-03-13T18:47:43.752Z,1.67
2019-03-13T18:50:16.225Z,1.70
2019-03-13T18:52:44.200Z,1.57
2019-03-13T18:55:21.064Z,1.63
2019-03-13T18:57:50.729Z,1.65
2019-03-13T19:00:22.131Z,1.57
2019-03-13T19:02:50.741Z,1.54
2019-03-13T19:05:19.603Z,1.59
2019-03-13T19:07:47.574Z,1.59
2019-03-13T19:10:21.273Z,1.56
2019-03-13T19:12:48.833Z,1.55
2019-03-13T19:15:21.226Z,1.72
2019-03-13T19:17:48.873Z,1.59
2019-03-13T19:20:21.564Z,1.50
2019-03-13T19:22:49.712Z,1.48
2019-03-13T19:25:17.784Z,1.49
2019-03-13T19:27:45.661Z,1.53
2019-03-13T19:30:16.902Z,1.53
2019-03-13T19:32:44.865Z,1.41
2019-03-13T19:35:13.251Z,1.40
2019-03-13T19:37:41.521Z,1.43
2019-03-13T19:40:18.067Z,1.39
2019-03-13T19:42:45.545Z,1.46
2019-03-13T19:45:29.794Z,1.57
2019-03-13T19:48:01.302Z,1.47
2019-03-13T19:50:28.815Z,1.64
2019-03-13T19:52:57.609Z,1.75
2019-03-13T19:55:26.283Z,1.66
2019-03-13T19:57:54.675Z,1.53
2019-03-13T20:00:25.087Z,1.53
2019-03-13T20:03:00.435Z,1.51
2019-03-13T20:05:26.854Z,1.43
2019-03-13T20:07:55.338Z,1.29
2019-03-13T20:10:25.148Z,1.30
2019-03-13T20:12:53.226Z,1.27
2019-03-13T20:15:24.814Z,1.21
2019-03-13T20:17:54.687Z,1.12
2019-03-13T20:20:23.374Z,1.02
2019-03-13T20:23:09.565Z,0.99
2019-03-13T20:25:37.842Z,0.87
2019-03-13T20:28:06.633Z,0.86
2019-03-13T20:30:34.917Z,0.78
2019-03-13T20:33:03.620Z,0.70
2019-03-13T20:35:31.869Z,0.70
2019-03-13T20:38:00.346Z,0.80
2019-03-13T20:40:28.962Z,0.79
2019-03-13T20:42:57.413Z,0.86
2019-03-13T20:45:29.515Z,0.87
2019-03-13T20:47:57.137Z,0.49
2019-03-13T20:50:36.039Z,0.51
2019-03-13T20:52:55.432Z,0.27
2019-03-13T20:55:23.440Z,0.23
2019-03-13T20:57:51.774Z,0.37
2019-03-13T21:00:26.410Z,0.19
2019-03-13T21:02:55.090Z,0.06
2019-03-13T21:05:22.652Z,0.16
2019-03-13T21:07:51.021Z,0.33
2019-03-13T21:10:18.791Z,0.29
2019-03-13T21:12:46.857Z,0.07
2019-03-13T21:15:20.353Z,0.00
2019-03-13T21:17:48.432Z,0.18
2019-03-13T21:20:16.910Z,0.02
2019-03-13T21:22:44.850Z,-0.11
2019-03-13T21:25:21.546Z,-0.09
2019-03-13T21:27:49.309Z,-0.06
2019-03-13T21:30:27.741Z,-0.24
2019-03-13T21:32:56.408Z,-0.10
2019-03-13T21:35:24.069Z,-0.27
2019-03-13T21:37:52.154Z,-0.36
2019-03-13T21:40:21.745Z,-0.36
2019-03-13T21:42:49.512Z,-0.22
2019-03-13T21:45:22.700Z,-0.28
2019-03-13T21:47:47.207Z,-0.30
2019-03-13T21:50:17.517Z,-0.19
2019-03-13T21:52:45.582Z,-0.17
2019-03-13T21:55:17.552Z,-0.21
2019-03-13T21:57:45.410Z,-0.13
2019-03-13T22:00:24.084Z,-0.29
2019-03-13T22:02:52.223Z,-0.15
2019-03-13T22:05:26.318Z,-0.16
2019-03-13T22:07:50.298Z,-0.14
2019-03-13T22:10:18.463Z,-0.18
2019-03-13T22:12:46.434Z,-0.13
2019-03-13T22:15:19.218Z,-0.09
2019-03-13T22:17:47.283Z,-0.12
2019-03-13T22:20:15.870Z,-0.33
2019-03-13T22:22:43.834Z,-0.35
2019-03-13T22:25:15.708Z,-0.32
2019-03-13T22:27:43.670Z,-0.24
2019-03-13T22:30:20.751Z,-0.31
2019-03-13T22:32:48.720Z,-0.44
2019-03-13T22:35:16.581Z,-0.36
2019-03-13T22:37:45.683Z,-0.28
2019-03-13T22:40:14.772Z,-0.43
2019-03-13T22:42:42.581Z,-0.59
2019-03-13T22:45:17.456Z,-0.62
2019-03-13T22:47:45.438Z,-0.49
2019-03-13T22:50:18.116Z,-0.56
2019-03-13T22:52:45.776Z,-0.67
2019-03-13T22:55:14.360Z,-0.73
2019-03-13T22:57:42.329Z,-0.66
2019-03-13T23:00:22.278Z,-0.80
2019-03-13T23:02:52.091Z,-0.68
2019-03-13T23:05:20.463Z,-0.77
2019-03-13T23:07:48.332Z,-0.77
2019-03-13T23:10:28.997Z,-0.85
2019-03-13T23:12:57.067Z,-0.62
2019-03-13T23:15:25.757Z,-0.68
2019-03-13T23:17:53.730Z,-0.87
2019-03-13T23:20:21.689Z,-1.00
2019-03-13T23:22:49.657Z,-0.86
2019-03-13T23:25:17.624Z,-0.89
2019-03-13T23:27:45.699Z,-0.79
2019-03-13T23:30:16.431Z,-0.94
2019-03-13T23:32:44.300Z,-0.91
2019-03-13T23:35:12.268Z,-0.87
2019-03-13T23:37:40.338Z,-0.91
2019-03-13T23:40:08.776Z,-0.90
2019-03-13T23:42:36.891Z,-1.09
2019-03-13T23:45:06.628Z,-1.25
2019-03-13T23:47:34.160Z,-1.21
2019-03-13T23:50:02.230Z,-1.19
2019-03-13T23:52:30.095Z,-1.06
2019-03-13T23:54:58.371Z,-1.28
2019-03-13T23:57:26.241Z,-1.13
2019-03-13T23:59:54.208Z,-0.88
